sensor_id;sensor_type;location;lat;lon;timestamp;temperature;humidity
78297;DHT22;67555;47.660;19.622;2023-11-21T00:00:35;8.20;75.30
78297;DHT22;67555;47.660;19.622;2023-11-21T00:03:01;8.30;75.10
78297;DHT22;67555;47.660;19.622;2023-11-21T00:05:27;8.30;75.00
78297;DHT22;67555;47.660;19.622;2023-11-21T00:07:53;8.30;75.00
78297;DHT22;67555;47.660;19.622;2023-11-21T00:10:18;8.30;74.80
78297;DHT22;67555;47.660;19.622;2023-11-21T00:12:44;8.40;74.70
78297;DHT22;67555;47.660;19.622;2023-11-21T00:15:13;8.40;74.50
78297;DHT22;67555;47.660;19.622;2023-11-21T00:17:39;8.40;74.30
78297;DHT22;67555;47.660;19.622;2023-11-21T00:20:07;8.40;74.10
78297;DHT22;67555;47.660;19.622;2023-11-21T00:22:34;8.40;74.00
78297;DHT22;67555;47.660;19.622;2023-11-21T00:25:01;8.40;74.00
78297;DHT22;67555;47.660;19.622;2023-11-21T00:27:26;8.40;73.90
78297;DHT22;67555;47.660;19.622;2023-11-21T00:29:52;8.30;73.80
78297;DHT22;67555;47.660;19.622;2023-11-21T00:32:19;8.30;73.80
78297;DHT22;67555;47.660;19.622;2023-11-21T00:34:44;8.30;73.80
78297;DHT22;67555;47.660;19.622;2023-11-21T00:37:11;8.30;73.90
78297;DHT22;67555;47.660;19.622;2023-11-21T00:39:37;8.20;73.90
78297;DHT22;67555;47.660;19.622;2023-11-21T00:42:03;8.10;74.10
78297;DHT22;67555;47.660;19.622;2023-11-21T00:44:30;8.10;74.10
78297;DHT22;67555;47.660;19.622;2023-11-21T00:46:56;8.00;74.20
78297;DHT22;67555;47.660;19.622;2023-11-21T00:49:22;8.00;74.30
78297;DHT22;67555;47.660;19.622;2023-11-21T00:51:47;7.90;74.30
78297;DHT22;67555;47.660;19.622;2023-11-21T00:54:13;7.90;74.40
78297;DHT22;67555;47.660;19.622;2023-11-21T00:56:39;7.80;74.40
78297;DHT22;67555;47.660;19.622;2023-11-21T00:59:05;7.70;74.60
78297;DHT22;67555;47.660;19.622;2023-11-21T01:01:32;7.50;74.90
78297;DHT22;67555;47.660;19.622;2023-11-21T01:03:58;7.50;75.30
78297;DHT22;67555;47.660;19.622;2023-11-21T01:06:23;7.40;75.40
78297;DHT22;67555;47.660;19.622;2023-11-21T01:08:49;7.30;75.50
78297;DHT22;67555;47.660;19.622;2023-11-21T01:11:15;7.20;75.70
78297;DHT22;67555;47.660;19.622;2023-11-21T01:13:41;7.00;76.00
78297;DHT22;67555;47.660;19.622;2023-11-21T01:16:08;7.00;76.40
78297;DHT22;67555;47.660;19.622;2023-11-21T01:18:35;7.00;76.40
78297;DHT22;67555;47.660;19.622;2023-11-21T01:21:01;7.00;76.50
78297;DHT22;67555;47.660;19.622;2023-11-21T01:23:27;7.00;76.50
78297;DHT22;67555;47.660;19.622;2023-11-21T01:25:54;7.00;76.40
78297;DHT22;67555;47.660;19.622;2023-11-21T01:28:20;6.90;76.50
78297;DHT22;67555;47.660;19.622;2023-11-21T01:30:46;6.70;77.00
78297;DHT22;67555;47.660;19.622;2023-11-21T01:33:12;6.50;77.50
78297;DHT22;67555;47.660;19.622;2023-11-21T01:35:37;6.50;78.00
78297;DHT22;67555;47.660;19.622;2023-11-21T01:38:04;6.50;78.20
78297;DHT22;67555;47.660;19.622;2023-11-21T01:40:29;6.50;78.10
78297;DHT22;67555;47.660;19.622;2023-11-21T01:42:56;6.60;77.90
78297;DHT22;67555;47.660;19.622;2023-11-21T01:45:23;6.70;77.60
78297;DHT22;67555;47.660;19.622;2023-11-21T01:47:50;6.80;77.50
78297;DHT22;67555;47.660;19.622;2023-11-21T01:50:16;6.80;77.30
78297;DHT22;67555;47.660;19.622;2023-11-21T01:52:48;6.90;77.20
78297;DHT22;67555;47.660;19.622;2023-11-21T01:55:16;7.00;76.90
78297;DHT22;67555;47.660;19.622;2023-11-21T01:57:45;7.10;76.70
78297;DHT22;67555;47.660;19.622;2023-11-21T02:00:12;7.20;76.50
78297;DHT22;67555;47.660;19.622;2023-11-21T02:02:45;7.20;76.60
78297;DHT22;67555;47.660;19.622;2023-11-21T02:05:11;7.20;76.60
78297;DHT22;67555;47.660;19.622;2023-11-21T02:07:39;7.40;76.60
78297;DHT22;67555;47.660;19.622;2023-11-21T02:10:25;7.40;76.50
78297;DHT22;67555;47.660;19.622;2023-11-21T02:12:51;7.50;76.30
78297;DHT22;67555;47.660;19.622;2023-11-21T02:15:17;7.50;76.10
78297;DHT22;67555;47.660;19.622;2023-11-21T02:17:47;7.50;76.00
78297;DHT22;67555;47.660;19.622;2023-11-21T02:20:13;7.60;75.90
78297;DHT22;67555;47.660;19.622;2023-11-21T02:22:53;7.50;75.90
78297;DHT22;67555;47.660;19.622;2023-11-21T02:25:26;7.50;75.90
78297;DHT22;67555;47.660;19.622;2023-11-21T02:27:53;7.50;76.00
78297;DHT22;67555;47.660;19.622;2023-11-21T02:30:21;7.50;75.80
78297;DHT22;67555;47.660;19.622;2023-11-21T02:32:48;7.60;75.70
78297;DHT22;67555;47.660;19.622;2023-11-21T02:35:14;7.60;75.70
78297;DHT22;67555;47.660;19.622;2023-11-21T02:37:41;7.60;75.60
78297;DHT22;67555;47.660;19.622;2023-11-21T02:40:09;7.60;75.50
78297;DHT22;67555;47.660;19.622;2023-11-21T02:42:35;7.60;75.40
78297;DHT22;67555;47.660;19.622;2023-11-21T02:45:01;7.60;75.40
78297;DHT22;67555;47.660;19.622;2023-11-21T02:47:27;7.60;75.40
78297;DHT22;67555;47.660;19.622;2023-11-21T02:49:52;7.60;75.40
78297;DHT22;67555;47.660;19.622;2023-11-21T02:52:18;7.60;75.40
78297;DHT22;67555;47.660;19.622;2023-11-21T02:54:44;7.60;75.30
78297;DHT22;67555;47.660;19.622;2023-11-21T02:57:10;7.60;75.30
78297;DHT22;67555;47.660;19.622;2023-11-21T02:59:36;7.60;75.40
78297;DHT22;67555;47.660;19.622;2023-11-21T03:02:02;7.60;75.30
78297;DHT22;67555;47.660;19.622;2023-11-21T03:04:27;7.60;75.40
78297;DHT22;67555;47.660;19.622;2023-11-21T03:06:53;7.60;75.30
78297;DHT22;67555;47.660;19.622;2023-11-21T03:09:19;7.60;75.20
78297;DHT22;67555;47.660;19.622;2023-11-21T03:11:45;7.70;75.20
78297;DHT22;67555;47.660;19.622;2023-11-21T03:14:11;7.60;75.10
78297;DHT22;67555;47.660;19.622;2023-11-21T03:16:37;7.60;75.20
78297;DHT22;67555;47.660;19.622;2023-11-21T03:19:04;7.60;75.20
78297;DHT22;67555;47.660;19.622;2023-11-21T03:21:30;7.50;75.40
78297;DHT22;67555;47.660;19.622;2023-11-21T03:23:56;7.40;75.80
78297;DHT22;67555;47.660;19.622;2023-11-21T03:26:22;7.30;76.20
78297;DHT22;67555;47.660;19.622;2023-11-21T03:28:47;7.20;76.60
78297;DHT22;67555;47.660;19.622;2023-11-21T03:31:13;7.10;77.00
78297;DHT22;67555;47.660;19.622;2023-11-21T03:33:39;7.00;77.40
78297;DHT22;67555;47.660;19.622;2023-11-21T03:36:05;7.00;77.70
78297;DHT22;67555;47.660;19.622;2023-11-21T03:38:30;6.80;78.10
78297;DHT22;67555;47.660;19.622;2023-11-21T03:40:56;6.80;78.30
78297;DHT22;67555;47.660;19.622;2023-11-21T03:43:22;6.90;78.40
78297;DHT22;67555;47.660;19.622;2023-11-21T03:45:47;7.00;78.20
78297;DHT22;67555;47.660;19.622;2023-11-21T03:48:14;7.00;78.00
78297;DHT22;67555;47.660;19.622;2023-11-21T03:50:39;7.10;77.70
78297;DHT22;67555;47.660;19.622;2023-11-21T03:53:05;7.20;77.50
78297;DHT22;67555;47.660;19.622;2023-11-21T03:55:31;7.20;77.40
78297;DHT22;67555;47.660;19.622;2023-11-21T03:57:58;7.30;77.30
78297;DHT22;67555;47.660;19.622;2023-11-21T04:00:25;7.30;77.20
78297;DHT22;67555;47.660;19.622;2023-11-21T04:02:52;7.40;77.20
78297;DHT22;67555;47.660;19.622;2023-11-21T04:05:19;7.40;77.20
78297;DHT22;67555;47.660;19.622;2023-11-21T04:07:45;7.40;77.20
78297;DHT22;67555;47.660;19.622;2023-11-21T04:10:11;7.40;77.10
78297;DHT22;67555;47.660;19.622;2023-11-21T04:12:38;7.40;77.10
78297;DHT22;67555;47.660;19.622;2023-11-21T04:15:04;7.40;77.20
78297;DHT22;67555;47.660;19.622;2023-11-21T04:17:30;7.40;77.30
78297;DHT22;67555;47.660;19.622;2023-11-21T04:19:56;7.40;77.20
78297;DHT22;67555;47.660;19.622;2023-11-21T04:22:22;7.40;77.00
78297;DHT22;67555;47.660;19.622;2023-11-21T04:24:47;7.30;77.10
78297;DHT22;67555;47.660;19.622;2023-11-21T04:27:14;7.30;77.10
78297;DHT22;67555;47.660;19.622;2023-11-21T04:29:40;7.40;77.00
78297;DHT22;67555;47.660;19.622;2023-11-21T04:32:06;7.40;76.70
78297;DHT22;67555;47.660;19.622;2023-11-21T04:34:33;7.50;76.50
78297;DHT22;67555;47.660;19.622;2023-11-21T04:37:00;7.50;76.40
78297;DHT22;67555;47.660;19.622;2023-11-21T04:39:26;7.50;76.30
78297;DHT22;67555;47.660;19.622;2023-11-21T04:41:51;7.50;76.20
78297;DHT22;67555;47.660;19.622;2023-11-21T04:44:18;7.50;76.10
78297;DHT22;67555;47.660;19.622;2023-11-21T04:46:45;7.50;76.00
78297;DHT22;67555;47.660;19.622;2023-11-21T04:49:11;7.50;75.80
78297;DHT22;67555;47.660;19.622;2023-11-21T04:51:37;7.50;75.80
78297;DHT22;67555;47.660;19.622;2023-11-21T04:54:03;7.50;75.70
78297;DHT22;67555;47.660;19.622;2023-11-21T04:56:29;7.50;75.60
78297;DHT22;67555;47.660;19.622;2023-11-21T04:58:54;7.50;75.50
78297;DHT22;67555;47.660;19.622;2023-11-21T05:01:20;7.50;75.50
78297;DHT22;67555;47.660;19.622;2023-11-21T05:03:46;7.50;75.50
78297;DHT22;67555;47.660;19.622;2023-11-21T05:06:12;7.50;75.40
78297;DHT22;67555;47.660;19.622;2023-11-21T05:08:39;7.50;75.40
78297;DHT22;67555;47.660;19.622;2023-11-21T05:11:05;7.20;75.70
78297;DHT22;67555;47.660;19.622;2023-11-21T05:13:34;7.10;76.10
78297;DHT22;67555;47.660;19.622;2023-11-21T05:15:59;7.00;76.50
78297;DHT22;67555;47.660;19.622;2023-11-21T05:18:25;6.90;76.90
78297;DHT22;67555;47.660;19.622;2023-11-21T05:20:52;6.90;77.00
78297;DHT22;67555;47.660;19.622;2023-11-21T05:23:19;6.80;77.20
78297;DHT22;67555;47.660;19.622;2023-11-21T05:25:45;6.80;77.50
78297;DHT22;67555;47.660;19.622;2023-11-21T05:28:12;6.80;77.50
78297;DHT22;67555;47.660;19.622;2023-11-21T05:30:38;6.90;77.20
78297;DHT22;67555;47.660;19.622;2023-11-21T05:33:06;7.00;77.00
78297;DHT22;67555;47.660;19.622;2023-11-21T05:35:32;7.00;76.80
78297;DHT22;67555;47.660;19.622;2023-11-21T05:37:58;7.20;76.60
78297;DHT22;67555;47.660;19.622;2023-11-21T05:40:23;7.20;76.30
78297;DHT22;67555;47.660;19.622;2023-11-21T05:42:51;7.20;76.10
78297;DHT22;67555;47.660;19.622;2023-11-21T05:45:17;7.30;76.00
78297;DHT22;67555;47.660;19.622;2023-11-21T05:47:45;7.30;75.90
78297;DHT22;67555;47.660;19.622;2023-11-21T05:50:15;7.20;75.70
78297;DHT22;67555;47.660;19.622;2023-11-21T05:52:45;7.20;75.60
78297;DHT22;67555;47.660;19.622;2023-11-21T05:55:12;7.20;75.50
78297;DHT22;67555;47.660;19.622;2023-11-21T05:57:40;7.20;75.60
78297;DHT22;67555;47.660;19.622;2023-11-21T06:00:15;7.10;75.70
78297;DHT22;67555;47.660;19.622;2023-11-21T06:02:46;7.00;76.10
78297;DHT22;67555;47.660;19.622;2023-11-21T06:05:12;7.00;76.30
78297;DHT22;67555;47.660;19.622;2023-11-21T06:07:38;7.00;76.40
78297;DHT22;67555;47.660;19.622;2023-11-21T06:10:06;7.00;76.60
78297;DHT22;67555;47.660;19.622;2023-11-21T06:12:35;7.00;76.60
78297;DHT22;67555;47.660;19.622;2023-11-21T06:15:04;7.20;76.40
78297;DHT22;67555;47.660;19.622;2023-11-21T06:17:33;7.20;76.20
78297;DHT22;67555;47.660;19.622;2023-11-21T06:20:08;7.30;76.10
78297;DHT22;67555;47.660;19.622;2023-11-21T06:22:41;7.40;76.00
78297;DHT22;67555;47.660;19.622;2023-11-21T06:25:08;7.50;75.80
78297;DHT22;67555;47.660;19.622;2023-11-21T06:27:39;7.60;75.70
78297;DHT22;67555;47.660;19.622;2023-11-21T06:30:06;7.70;75.50
78297;DHT22;67555;47.660;19.622;2023-11-21T06:32:32;7.80;75.30
78297;DHT22;67555;47.660;19.622;2023-11-21T06:34:58;7.80;75.10
78297;DHT22;67555;47.660;19.622;2023-11-21T06:37:27;7.90;75.00
78297;DHT22;67555;47.660;19.622;2023-11-21T06:39:53;8.00;74.80
78297;DHT22;67555;47.660;19.622;2023-11-21T06:42:19;8.00;74.80
78297;DHT22;67555;47.660;19.622;2023-11-21T06:44:46;8.00;74.70
78297;DHT22;67555;47.660;19.622;2023-11-21T06:47:12;8.00;74.60
78297;DHT22;67555;47.660;19.622;2023-11-21T06:49:37;8.00;74.50
78297;DHT22;67555;47.660;19.622;2023-11-21T06:52:06;8.00;74.50
78297;DHT22;67555;47.660;19.622;2023-11-21T06:54:31;8.10;74.40
78297;DHT22;67555;47.660;19.622;2023-11-21T06:56:58;8.10;74.30
78297;DHT22;67555;47.660;19.622;2023-11-21T06:59:24;8.20;74.30
78297;DHT22;67555;47.660;19.622;2023-11-21T07:01:50;8.20;74.20
78297;DHT22;67555;47.660;19.622;2023-11-21T07:04:16;8.30;74.20
78297;DHT22;67555;47.660;19.622;2023-11-21T07:06:41;8.30;74.20
78297;DHT22;67555;47.660;19.622;2023-11-21T07:09:09;8.30;74.30
78297;DHT22;67555;47.660;19.622;2023-11-21T07:11:35;8.30;74.40
78297;DHT22;67555;47.660;19.622;2023-11-21T07:14:01;8.30;74.50
78297;DHT22;67555;47.660;19.622;2023-11-21T07:16:36;8.30;74.50
78297;DHT22;67555;47.660;19.622;2023-11-21T07:19:06;8.30;74.50
78297;DHT22;67555;47.660;19.622;2023-11-21T07:21:33;8.30;74.60
78297;DHT22;67555;47.660;19.622;2023-11-21T07:24:00;8.30;74.80
78297;DHT22;67555;47.660;19.622;2023-11-21T07:26:27;8.30;75.00
78297;DHT22;67555;47.660;19.622;2023-11-21T07:28:53;8.40;74.80
78297;DHT22;67555;47.660;19.622;2023-11-21T07:31:19;8.50;74.50
78297;DHT22;67555;47.660;19.622;2023-11-21T07:33:46;8.60;74.50
78297;DHT22;67555;47.660;19.622;2023-11-21T07:36:15;8.60;74.40
78297;DHT22;67555;47.660;19.622;2023-11-21T07:38:42;8.60;74.30
78297;DHT22;67555;47.660;19.622;2023-11-21T07:41:08;8.80;74.20
78297;DHT22;67555;47.660;19.622;2023-11-21T07:43:35;8.90;74.00
78297;DHT22;67555;47.660;19.622;2023-11-21T07:46:04;8.90;73.90
78297;DHT22;67555;47.660;19.622;2023-11-21T07:48:30;9.00;73.80
78297;DHT22;67555;47.660;19.622;2023-11-21T07:50:57;9.00;73.60
78297;DHT22;67555;47.660;19.622;2023-11-21T07:53:24;9.00;73.60
78297;DHT22;67555;47.660;19.622;2023-11-21T07:56:08;9.00;73.70
78297;DHT22;67555;47.660;19.622;2023-11-21T07:58:37;9.00;73.80
78297;DHT22;67555;47.660;19.622;2023-11-21T08:01:03;9.00;73.80
78297;DHT22;67555;47.660;19.622;2023-11-21T08:03:31;9.10;73.70
78297;DHT22;67555;47.660;19.622;2023-11-21T08:05:57;9.20;73.60
78297;DHT22;67555;47.660;19.622;2023-11-21T08:08:23;9.20;73.50
78297;DHT22;67555;47.660;19.622;2023-11-21T08:10:49;9.40;73.40
78297;DHT22;67555;47.660;19.622;2023-11-21T08:13:22;9.40;73.20
78297;DHT22;67555;47.660;19.622;2023-11-21T08:15:48;9.20;73.50
78297;DHT22;67555;47.660;19.622;2023-11-21T08:18:14;9.30;73.60
78297;DHT22;67555;47.660;19.622;2023-11-21T08:20:40;9.40;73.70
78297;DHT22;67555;47.660;19.622;2023-11-21T08:23:06;9.40;73.60
78297;DHT22;67555;47.660;19.622;2023-11-21T08:25:32;9.50;73.50
78297;DHT22;67555;47.660;19.622;2023-11-21T08:28:00;9.60;73.40
78297;DHT22;67555;47.660;19.622;2023-11-21T08:30:25;9.70;73.30
78297;DHT22;67555;47.660;19.622;2023-11-21T08:32:54;9.80;73.10
78297;DHT22;67555;47.660;19.622;2023-11-21T08:35:24;9.90;72.90
78297;DHT22;67555;47.660;19.622;2023-11-21T08:37:51;10.00;72.80
78297;DHT22;67555;47.660;19.622;2023-11-21T08:40:18;9.80;72.90
78297;DHT22;67555;47.660;19.622;2023-11-21T08:42:45;9.60;73.40
78297;DHT22;67555;47.660;19.622;2023-11-21T08:45:11;9.40;74.30
78297;DHT22;67555;47.660;19.622;2023-11-21T08:47:39;9.20;75.00
78297;DHT22;67555;47.660;19.622;2023-11-21T08:50:08;9.20;75.40
78297;DHT22;67555;47.660;19.622;2023-11-21T08:52:34;9.20;75.60
78297;DHT22;67555;47.660;19.622;2023-11-21T08:55:00;9.20;75.70
78297;DHT22;67555;47.660;19.622;2023-11-21T08:57:33;9.20;75.70
78297;DHT22;67555;47.660;19.622;2023-11-21T08:59:59;9.30;75.70
78297;DHT22;67555;47.660;19.622;2023-11-21T09:02:28;9.20;75.60
78297;DHT22;67555;47.660;19.622;2023-11-21T09:04:53;9.30;75.60
78297;DHT22;67555;47.660;19.622;2023-11-21T09:07:19;9.40;75.40
78297;DHT22;67555;47.660;19.622;2023-11-21T09:09:49;9.40;75.30
78297;DHT22;67555;47.660;19.622;2023-11-21T09:12:15;9.40;75.30
78297;DHT22;67555;47.660;19.622;2023-11-21T09:14:42;9.60;75.10
78297;DHT22;67555;47.660;19.622;2023-11-21T09:17:12;9.70;74.70
78297;DHT22;67555;47.660;19.622;2023-11-21T09:19:38;10.00;74.30
78297;DHT22;67555;47.660;19.622;2023-11-21T09:22:04;10.10;73.90
78297;DHT22;67555;47.660;19.622;2023-11-21T09:24:31;10.20;73.50
78297;DHT22;67555;47.660;19.622;2023-11-21T09:26:57;10.30;73.40
78297;DHT22;67555;47.660;19.622;2023-11-21T09:29:22;10.40;73.20
78297;DHT22;67555;47.660;19.622;2023-11-21T09:31:48;10.50;73.00
78297;DHT22;67555;47.660;19.622;2023-11-21T09:34:16;10.50;72.90
78297;DHT22;67555;47.660;19.622;2023-11-21T09:36:45;10.60;72.90
78297;DHT22;67555;47.660;19.622;2023-11-21T09:39:11;10.60;72.70
78297;DHT22;67555;47.660;19.622;2023-11-21T09:41:52;10.70;72.70
78297;DHT22;67555;47.660;19.622;2023-11-21T09:44:35;10.70;72.50
78297;DHT22;67555;47.660;19.622;2023-11-21T09:47:02;10.70;72.40
78297;DHT22;67555;47.660;19.622;2023-11-21T09:49:28;10.80;72.30
78297;DHT22;67555;47.660;19.622;2023-11-21T09:51:58;10.90;72.20
78297;DHT22;67555;47.660;19.622;2023-11-21T09:54:30;10.90;72.00
78297;DHT22;67555;47.660;19.622;2023-11-21T09:56:59;10.80;72.00
78297;DHT22;67555;47.660;19.622;2023-11-21T09:59:30;10.60;72.00
78297;DHT22;67555;47.660;19.622;2023-11-21T10:01:57;10.40;72.70
78297;DHT22;67555;47.660;19.622;2023-11-21T10:04:24;10.20;73.40
78297;DHT22;67555;47.660;19.622;2023-11-21T10:06:50;10.10;73.80
78297;DHT22;67555;47.660;19.622;2023-11-21T10:09:17;10.00;74.10
78297;DHT22;67555;47.660;19.622;2023-11-21T10:11:45;10.00;74.40
78297;DHT22;67555;47.660;19.622;2023-11-21T10:14:11;10.00;74.70
78297;DHT22;67555;47.660;19.622;2023-11-21T10:16:41;9.90;74.80
78297;DHT22;67555;47.660;19.622;2023-11-21T10:19:10;9.80;75.00
78297;DHT22;67555;47.660;19.622;2023-11-21T10:21:37;10.00;74.80
78297;DHT22;67555;47.660;19.622;2023-11-21T10:24:04;9.90;74.80
78297;DHT22;67555;47.660;19.622;2023-11-21T10:26:30;10.00;74.80
78297;DHT22;67555;47.660;19.622;2023-11-21T10:28:58;10.10;74.60
78297;DHT22;67555;47.660;19.622;2023-11-21T10:31:27;10.40;74.10
78297;DHT22;67555;47.660;19.622;2023-11-21T10:33:53;10.60;73.60
78297;DHT22;67555;47.660;19.622;2023-11-21T10:36:28;10.70;73.20
78297;DHT22;67555;47.660;19.622;2023-11-21T10:38:54;10.70;72.80
78297;DHT22;67555;47.660;19.622;2023-11-21T10:41:23;10.60;72.70
78297;DHT22;67555;47.660;19.622;2023-11-21T10:43:49;10.60;73.00
78297;DHT22;67555;47.660;19.622;2023-11-21T10:46:18;10.60;72.90
78297;DHT22;67555;47.660;19.622;2023-11-21T10:48:43;10.40;72.80
78297;DHT22;67555;47.660;19.622;2023-11-21T10:51:09;10.30;73.00
78297;DHT22;67555;47.660;19.622;2023-11-21T10:53:44;10.30;73.20
78297;DHT22;67555;47.660;19.622;2023-11-21T10:56:14;10.30;73.20
78297;DHT22;67555;47.660;19.622;2023-11-21T10:58:45;10.30;73.20
78297;DHT22;67555;47.660;19.622;2023-11-21T11:01:11;10.30;73.20
78297;DHT22;67555;47.660;19.622;2023-11-21T11:03:40;10.40;73.10
78297;DHT22;67555;47.660;19.622;2023-11-21T11:06:07;10.40;73.00
78297;DHT22;67555;47.660;19.622;2023-11-21T11:08:40;10.60;72.70
78297;DHT22;67555;47.660;19.622;2023-11-21T11:11:06;10.80;72.20
78297;DHT22;67555;47.660;19.622;2023-11-21T11:13:33;10.90;71.80
78297;DHT22;67555;47.660;19.622;2023-11-21T11:16:00;11.10;71.50
78297;DHT22;67555;47.660;19.622;2023-11-21T11:18:29;11.00;71.20
78297;DHT22;67555;47.660;19.622;2023-11-21T11:21:11;10.90;71.40
78297;DHT22;67555;47.660;19.622;2023-11-21T11:24:01;10.80;71.60
78297;DHT22;67555;47.660;19.622;2023-11-21T11:27:01;10.80;71.90
78297;DHT22;67555;47.660;19.622;2023-11-21T11:29:34;11.00;71.60
78297;DHT22;67555;47.660;19.622;2023-11-21T11:34:36;11.10;70.70
78297;DHT22;67555;47.660;19.622;2023-11-21T11:37:06;11.00;71.00
78297;DHT22;67555;47.660;19.622;2023-11-21T11:39:40;11.00;71.00
78297;DHT22;67555;47.660;19.622;2023-11-21T11:42:17;11.00;71.10
78297;DHT22;67555;47.660;19.622;2023-11-21T11:52:52;11.10;70.80
78297;DHT22;67555;47.660;19.622;2023-11-21T11:55:21;11.10;70.90
78297;DHT22;67555;47.660;19.622;2023-11-21T11:57:52;11.30;70.80
78297;DHT22;67555;47.660;19.622;2023-11-21T12:02:55;11.50;70.20
78297;DHT22;67555;47.660;19.622;2023-11-21T12:05:22;11.40;70.10
78297;DHT22;67555;47.660;19.622;2023-11-21T12:07:53;11.30;70.40
78297;DHT22;67555;47.660;19.622;2023-11-21T12:10:24;11.20;70.70
78297;DHT22;67555;47.660;19.622;2023-11-21T12:12:55;11.30;70.80
78297;DHT22;67555;47.660;19.622;2023-11-21T12:15:22;11.50;70.50
78297;DHT22;67555;47.660;19.622;2023-11-21T12:17:49;11.50;70.40
78297;DHT22;67555;47.660;19.622;2023-11-21T12:20:17;11.50;70.40
78297;DHT22;67555;47.660;19.622;2023-11-21T12:22:51;11.60;70.30
78297;DHT22;67555;47.660;19.622;2023-11-21T12:25:22;11.70;70.00
78297;DHT22;67555;47.660;19.622;2023-11-21T12:27:50;11.90;69.70
78297;DHT22;67555;47.660;19.622;2023-11-21T12:30:18;11.90;69.40
78297;DHT22;67555;47.660;19.622;2023-11-21T12:32:45;12.00;69.20
78297;DHT22;67555;47.660;19.622;2023-11-21T12:35:13;12.10;69.10
78297;DHT22;67555;47.660;19.622;2023-11-21T12:37:40;12.10;68.90
78297;DHT22;67555;47.660;19.622;2023-11-21T12:40:09;12.10;68.80
78297;DHT22;67555;47.660;19.622;2023-11-21T12:42:41;12.10;68.70
78297;DHT22;67555;47.660;19.622;2023-11-21T12:45:28;12.10;68.60
78297;DHT22;67555;47.660;19.622;2023-11-21T12:47:55;12.20;68.50
78297;DHT22;67555;47.660;19.622;2023-11-21T12:50:26;12.20;68.40
78297;DHT22;67555;47.660;19.622;2023-11-21T12:53:08;12.20;68.40
78297;DHT22;67555;47.660;19.622;2023-11-21T12:55:36;12.20;68.30
78297;DHT22;67555;47.660;19.622;2023-11-21T12:58:04;12.10;68.30
78297;DHT22;67555;47.660;19.622;2023-11-21T13:00:45;12.10;68.30
78297;DHT22;67555;47.660;19.622;2023-11-21T13:03:12;12.10;68.30
78297;DHT22;67555;47.660;19.622;2023-11-21T13:05:43;12.10;68.30
78297;DHT22;67555;47.660;19.622;2023-11-21T13:08:11;12.10;68.20
78297;DHT22;67555;47.660;19.622;2023-11-21T13:10:43;12.00;68.30
78297;DHT22;67555;47.660;19.622;2023-11-21T13:13:10;12.10;68.30
78297;DHT22;67555;47.660;19.622;2023-11-21T13:15:48;12.10;68.30
78297;DHT22;67555;47.660;19.622;2023-11-21T13:18:14;12.10;68.20
78297;DHT22;67555;47.660;19.622;2023-11-21T13:20:41;12.10;68.20
78297;DHT22;67555;47.660;19.622;2023-11-21T13:23:09;12.00;68.20
78297;DHT22;67555;47.660;19.622;2023-11-21T13:25:38;12.00;68.20
78297;DHT22;67555;47.660;19.622;2023-11-21T13:28:06;12.00;68.20
78297;DHT22;67555;47.660;19.622;2023-11-21T13:30:32;12.00;68.30
78297;DHT22;67555;47.660;19.622;2023-11-21T13:33:01;11.90;68.60
78297;DHT22;67555;47.660;19.622;2023-11-21T13:35:31;11.80;68.90
78297;DHT22;67555;47.660;19.622;2023-11-21T13:38:07;11.80;69.00
78297;DHT22;67555;47.660;19.622;2023-11-21T13:40:33;11.90;68.90
78297;DHT22;67555;47.660;19.622;2023-11-21T13:43:05;11.90;68.70
78297;DHT22;67555;47.660;19.622;2023-11-21T13:45:44;11.90;68.70
78297;DHT22;67555;47.660;19.622;2023-11-21T13:48:12;11.90;68.60
78297;DHT22;67555;47.660;19.622;2023-11-21T13:50:57;11.90;68.60
78297;DHT22;67555;47.660;19.622;2023-11-21T13:53:36;11.80;68.60
78297;DHT22;67555;47.660;19.622;2023-11-21T13:56:03;11.80;68.70
78297;DHT22;67555;47.660;19.622;2023-11-21T13:58:29;11.70;68.70
78297;DHT22;67555;47.660;19.622;2023-11-21T14:01:13;11.70;68.80
78297;DHT22;67555;47.660;19.622;2023-11-21T14:03:58;11.70;68.90
78297;DHT22;67555;47.660;19.622;2023-11-21T14:06:33;11.70;68.90
78297;DHT22;67555;47.660;19.622;2023-11-21T14:09:05;11.60;69.00
78297;DHT22;67555;47.660;19.622;2023-11-21T14:11:33;11.60;69.10
78297;DHT22;67555;47.660;19.622;2023-11-21T14:14:03;11.50;69.20
78297;DHT22;67555;47.660;19.622;2023-11-21T14:16:29;11.50;69.30
78297;DHT22;67555;47.660;19.622;2023-11-21T14:18:54;11.50;69.30
78297;DHT22;67555;47.660;19.622;2023-11-21T14:21:35;11.50;69.30
78297;DHT22;67555;47.660;19.622;2023-11-21T14:24:00;11.50;69.40
78297;DHT22;67555;47.660;19.622;2023-11-21T14:26:26;11.40;69.50
78297;DHT22;67555;47.660;19.622;2023-11-21T14:28:53;11.40;69.50
78297;DHT22;67555;47.660;19.622;2023-11-21T14:31:19;11.40;69.50
78297;DHT22;67555;47.660;19.622;2023-11-21T14:33:46;11.30;69.60
78297;DHT22;67555;47.660;19.622;2023-11-21T14:36:11;11.30;69.50
78297;DHT22;67555;47.660;19.622;2023-11-21T14:38:37;11.20;69.60
78297;DHT22;67555;47.660;19.622;2023-11-21T14:41:05;11.10;69.70
78297;DHT22;67555;47.660;19.622;2023-11-21T14:43:34;11.10;69.90
78297;DHT22;67555;47.660;19.622;2023-11-21T14:46:01;11.00;69.90
78297;DHT22;67555;47.660;19.622;2023-11-21T14:48:29;10.90;70.10
78297;DHT22;67555;47.660;19.622;2023-11-21T14:51:13;10.80;70.30
78297;DHT22;67555;47.660;19.622;2023-11-21T14:53:56;10.70;70.50
78297;DHT22;67555;47.660;19.622;2023-11-21T14:56:26;10.60;70.80
78297;DHT22;67555;47.660;19.622;2023-11-21T14:58:57;10.50;70.90
78297;DHT22;67555;47.660;19.622;2023-11-21T15:01:26;10.40;70.90
78297;DHT22;67555;47.660;19.622;2023-11-21T15:04:10;10.40;71.00
78297;DHT22;67555;47.660;19.622;2023-11-21T15:07:06;10.30;71.00
78297;DHT22;67555;47.660;19.622;2023-11-21T15:09:32;10.20;71.00
78297;DHT22;67555;47.660;19.622;2023-11-21T15:11:58;10.10;71.10
78297;DHT22;67555;47.660;19.622;2023-11-21T15:14:51;10.10;71.20
78297;DHT22;67555;47.660;19.622;2023-11-21T15:17:24;10.00;71.30
78297;DHT22;67555;47.660;19.622;2023-11-21T15:19:54;9.90;71.30
78297;DHT22;67555;47.660;19.622;2023-11-21T15:22:20;9.80;71.50
78297;DHT22;67555;47.660;19.622;2023-11-21T15:24:46;9.70;71.60
78297;DHT22;67555;47.660;19.622;2023-11-21T15:27:13;9.60;71.70
78297;DHT22;67555;47.660;19.622;2023-11-21T15:29:40;9.50;71.80
78297;DHT22;67555;47.660;19.622;2023-11-21T15:32:06;9.40;72.00
78297;DHT22;67555;47.660;19.622;2023-11-21T15:34:33;9.40;72.20
78297;DHT22;67555;47.660;19.622;2023-11-21T15:36:59;9.30;72.30
78297;DHT22;67555;47.660;19.622;2023-11-21T15:39:25;9.20;72.50
78297;DHT22;67555;47.660;19.622;2023-11-21T15:41:55;9.00;72.90
78297;DHT22;67555;47.660;19.622;2023-11-21T15:44:21;9.00;73.10